Time;durP1;ratioP1;P1;durP2;ratioP2;P2;SDS_P1;SDS_P2;PMS_P1;PMS_P2;Temp;Humidity;BMP_temperature;BMP_pressure;BME280_temperature;BME280_humidity;BME280_pressure;Samples;Min_cycle;Max_cycle;Signal;HPM_P1;HPM_P2
2022/02/07 00:00:46;;;;;;;15.73;10.20;;;;;;;;;;5057473;28;20422;-87
2022/02/07 00:03:31;;;;;;;19.25;11.02;;;;;;;;;;5057616;28;20033;-89
2022/02/07 00:05:57;;;;;;;17.25;10.45;;;;;;;;;;5056487;28;20040;-88
2022/02/07 00:08:24;;;;;;;19.67;11.48;;;;;;;;;;5057395;28;20033;-88
2022/02/07 00:10:50;;;;;;;18.45;10.35;;;;;;;;;;5057461;28;20151;-89
2022/02/07 00:13:17;;;;;;;22.60;10.73;;;;;;;;;;5056607;28;20025;-86
2022/02/07 00:15:43;;;;;;;22.02;11.68;;;;;;;;;;5057614;28;20421;-88
2022/02/07 00:18:09;;;;;;;23.23;11.43;;;;;;;;;;5056997;28;20048;-86
2022/02/07 00:23:38;;;;;;;32.90;13.50;;;;;;;;;;5057473;28;20035;-87
2022/02/07 00:26:04;;;;;;;29.60;14.73;;;;;;;;;;5057154;28;20075;-86
2022/02/07 00:28:31;;;;;;;24.85;13.10;;;;;;;;;;5057208;28;20028;-87
2022/02/07 00:30:57;;;;;;;19.30;11.27;;;;;;;;;;5056326;28;20021;-87
2022/02/07 00:33:23;;;;;;;17.88;10.27;;;;;;;;;;5056658;28;20128;-87
2022/02/07 00:35:49;;;;;;;17.45;10.30;;;;;;;;;;5056986;28;20423;-87
2022/02/07 00:38:19;;;;;;;17.98;9.52;;;;;;;;;;5056051;28;20359;-86
2022/02/07 00:45:53;;;;;;;13.88;8.90;;;;;;;;;;5059165;28;20350;-87
2022/02/07 00:48:22;;;;;;;12.30;8.00;;;;;;;;;;5060675;28;20036;-87
2022/02/07 00:51:20;;;;;;;13.88;7.75;;;;;;;;;;5061097;28;20434;-87
2022/02/07 00:53:46;;;;;;;12.63;8.02;;;;;;;;;;5060849;28;20027;-87
2022/02/07 00:56:12;;;;;;;14.00;8.00;;;;;;;;;;5060685;28;20052;-88
2022/02/07 00:58:38;;;;;;;14.52;8.13;;;;;;;;;;5060606;28;20041;-88
2022/02/07 01:01:04;;;;;;;12.07;7.90;;;;;;;;;;5060695;28;20498;-88
2022/02/07 01:03:30;;;;;;;12.20;7.32;;;;;;;;;;5060786;28;20029;-87
2022/02/07 01:12:02;;;;;;;11.68;6.95;;;;;;;;;;5060668;28;20029;-87
2022/02/07 01:52:08;;;;;;;13.60;8.05;;;;;;;;;;5078400;28;20054;-87
2022/02/07 01:57:04;;;;;;;14.77;8.60;;;;;;;;;;5062262;28;20033;-86
2022/02/07 01:59:31;;;;;;;15.13;9.63;;;;;;;;;;5058681;28;20072;-86
2022/02/07 02:01:57;;;;;;;17.52;10.07;;;;;;;;;;5059955;28;20033;-86
2022/02/07 02:04:23;;;;;;;19.98;10.77;;;;;;;;;;5059440;28;20036;-87
2022/02/07 02:07:07;;;;;;;20.73;11.60;;;;;;;;;;5058382;28;20115;-86
2022/02/07 02:09:34;;;;;;;21.05;11.15;;;;;;;;;;5059495;28;20123;-86
2022/02/07 02:12:02;;;;;;;18.63;10.48;;;;;;;;;;5058593;28;20080;-88
2022/02/07 02:38:50;;;;;;;26.90;12.05;;;;;;;;;;5059084;28;20039;-87
2022/02/07 02:46:46;;;;;;;21.30;11.77;;;;;;;;;;5058974;28;20037;-89
2022/02/07 02:49:12;;;;;;;23.33;13.20;;;;;;;;;;5058790;28;20100;-89
2022/02/07 02:51:38;;;;;;;24.48;12.50;;;;;;;;;;5058856;28;20090;-89
2022/02/07 02:54:07;;;;;;;25.67;14.13;;;;;;;;;;5058728;28;20020;-88
2022/02/07 02:56:34;;;;;;;24.55;13.70;;;;;;;;;;5058554;28;20028;-88
2022/02/07 02:59:00;;;;;;;22.65;12.63;;;;;;;;;;5058572;28;20025;-89
2022/02/07 03:01:27;;;;;;;22.60;11.50;;;;;;;;;;5057619;28;20025;-89
2022/02/07 03:03:53;;;;;;;21.63;11.93;;;;;;;;;;5058575;28;20074;-89
2022/02/07 03:06:19;;;;;;;21.27;11.75;;;;;;;;;;5058513;28;20024;-90
2022/02/07 03:08:45;;;;;;;19.65;11.18;;;;;;;;;;5057985;28;20399;-90
2022/02/07 03:11:23;;;;;;;21.65;12.55;;;;;;;;;;5057440;28;20376;-90
2022/02/07 03:13:58;;;;;;;18.52;11.23;;;;;;;;;;5058552;28;20017;-89
2022/02/07 03:16:38;;;;;;;19.10;10.88;;;;;;;;;;5057356;28;20025;-88
2022/02/07 03:19:07;;;;;;;17.10;10.18;;;;;;;;;;5058539;28;20048;-86
2022/02/07 03:21:34;;;;;;;17.15;10.25;;;;;;;;;;5058055;28;20043;-88
2022/02/07 03:24:01;;;;;;;17.52;10.32;;;;;;;;;;5058362;28;20040;-88
2022/02/07 03:26:27;;;;;;;18.10;10.02;;;;;;;;;;5057939;28;20354;-87
2022/02/07 03:28:53;;;;;;;17.30;9.40;;;;;;;;;;5058018;28;20028;-88
2022/02/07 03:31:20;;;;;;;18.65;9.48;;;;;;;;;;5056974;28;20036;-90
2022/02/07 03:33:46;;;;;;;15.32;8.88;;;;;;;;;;5058046;28;20025;-89
2022/02/07 03:36:14;;;;;;;14.00;8.20;;;;;;;;;;5056947;28;20156;-88
2022/02/07 03:38:40;;;;;;;15.93;7.72;;;;;;;;;;5058037;28;20021;-88
2022/02/07 03:41:08;;;;;;;14.25;8.68;;;;;;;;;;5057780;28;20465;-88
2022/02/07 03:43:34;;;;;;;14.70;7.75;;;;;;;;;;5056996;28;20139;-88
2022/02/07 03:46:02;;;;;;;14.20;7.07;;;;;;;;;;5057886;28;20021;-88
2022/02/07 03:48:28;;;;;;;12.45;7.43;;;;;;;;;;5056743;28;20335;-86
2022/02/07 03:50:54;;;;;;;10.98;7.32;;;;;;;;;;5056698;28;20040;-88
2022/02/07 03:53:20;;;;;;;13.95;7.22;;;;;;;;;;5056970;28;20132;-87
2022/02/07 03:55:46;;;;;;;10.85;6.60;;;;;;;;;;5056698;28;20075;-87
2022/02/07 03:58:12;;;;;;;11.43;6.53;;;;;;;;;;5056869;28;20036;-87
2022/02/07 04:00:40;;;;;;;9.65;5.88;;;;;;;;;;5057805;28;20017;-88
2022/02/07 04:03:09;;;;;;;14.57;6.70;;;;;;;;;;5057895;28;20036;-88
2022/02/07 04:05:56;;;;;;;11.70;6.35;;;;;;;;;;5056479;28;20029;-86
2022/02/07 04:08:29;;;;;;;10.57;5.97;;;;;;;;;;5057350;28;20039;-86
2022/02/07 04:13:35;;;;;;;10.35;6.13;;;;;;;;;;5057478;28;20044;-85
2022/02/07 04:16:03;;;;;;;12.18;6.57;;;;;;;;;;5057516;28;20028;-85
2022/02/07 04:18:46;;;;;;;9.88;5.88;;;;;;;;;;5057497;28;20025;-85
2022/02/07 04:21:12;;;;;;;10.15;6.30;;;;;;;;;;5060427;28;20029;-86
2022/02/07 04:23:39;;;;;;;11.50;6.53;;;;;;;;;;5061145;28;20052;-86
2022/02/07 04:26:05;;;;;;;10.02;6.30;;;;;;;;;;5061610;28;20021;-86
2022/02/07 04:28:31;;;;;;;10.07;6.30;;;;;;;;;;5060478;28;20033;-87
2022/02/07 04:30:57;;;;;;;13.30;6.28;;;;;;;;;;5061602;28;20028;-87
2022/02/07 04:33:23;;;;;;;11.57;5.60;;;;;;;;;;5060665;28;20033;-87
2022/02/07 04:35:49;;;;;;;11.40;6.28;;;;;;;;;;5061006;28;20041;-87
2022/02/07 04:38:33;;;;;;;14.23;6.75;;;;;;;;;;5060858;28;20071;-87
2022/02/07 04:40:59;;;;;;;13.75;6.35;;;;;;;;;;5060253;28;20082;-87
2022/02/07 04:43:26;;;;;;;14.38;6.28;;;;;;;;;;5061225;28;20025;-86
2022/02/07 04:46:29;;;;;;;13.70;6.40;;;;;;;;;;5061455;28;20044;-87
2022/02/07 04:49:41;;;;;;;12.45;6.13;;;;;;;;;;5060694;28;20048;-88
2022/02/07 05:00:10;;;;;;;13.35;6.35;;;;;;;;;;5079086;28;20318;-87
2022/02/07 05:16:10;;;;;;;9.77;6.15;;;;;;;;;;5019143;28;20072;-86
2022/02/07 05:18:36;;;;;;;8.90;5.72;;;;;;;;;;5002522;28;20108;-87
2022/02/07 05:21:03;;;;;;;11.13;7.07;;;;;;;;;;5018988;28;20044;-87
2022/02/07 05:23:29;;;;;;;50.33;20.17;;;;;;;;;;5019083;28;20045;-88
2022/02/07 05:25:55;;;;;;;59.03;23.08;;;;;;;;;;5018808;28;20046;-88
2022/02/07 05:28:21;;;;;;;56.58;26.20;;;;;;;;;;5018645;28;20062;-87
2022/02/07 05:30:47;;;;;;;62.55;26.73;;;;;;;;;;5017628;28;20025;-86
2022/02/07 05:33:13;;;;;;;66.45;22.67;;;;;;;;;;5002135;28;20034;-86
2022/02/07 05:35:39;;;;;;;94.07;28.88;;;;;;;;;;5002009;28;20077;-86
2022/02/07 05:38:08;;;;;;;75.15;21.27;;;;;;;;;;5018542;28;20080;-85
2022/02/07 05:43:08;;;;;;;72.88;20.08;;;;;;;;;;5018714;28;20034;-86
2022/02/07 05:45:34;;;;;;;85.75;21.70;;;;;;;;;;5046184;28;20331;-87
2022/02/07 05:48:00;;;;;;;87.82;23.27;;;;;;;;;;5059954;28;20090;-86
2022/02/07 05:50:26;;;;;;;73.38;20.48;;;;;;;;;;5058663;28;20057;-86
2022/02/07 05:52:52;;;;;;;51.42;16.35;;;;;;;;;;5059672;28;20062;-87
2022/02/07 05:55:18;;;;;;;66.50;19.15;;;;;;;;;;5059606;28;20017;-88
2022/02/07 05:57:44;;;;;;;64.93;18.73;;;;;;;;;;5059950;28;20090;-88
2022/02/07 06:00:10;;;;;;;78.45;22.15;;;;;;;;;;5059332;28;20025;-87
2022/02/07 06:02:36;;;;;;;71.65;22.38;;;;;;;;;;5059628;28;20426;-87
2022/02/07 06:05:02;;;;;;;54.58;17.83;;;;;;;;;;5058701;28;20095;-89
2022/02/07 06:07:28;;;;;;;42.13;15.43;;;;;;;;;;5059386;28;20045;-87
2022/02/07 06:09:55;;;;;;;31.65;14.23;;;;;;;;;;5059521;28;20040;-87
2022/02/07 06:12:21;;;;;;;33.60;16.83;;;;;;;;;;5059437;28;20017;-86
2022/02/07 06:14:47;;;;;;;38.42;19.45;;;;;;;;;;5059163;28;20017;-86
2022/02/07 06:17:13;;;;;;;38.85;20.48;;;;;;;;;;5059481;28;20092;-87
2022/02/07 06:19:39;;;;;;;32.20;18.58;;;;;;;;;;5059091;28;20025;-87
2022/02/07 06:28:12;;;;;;;28.00;15.27;;;;;;;;;;5099049;28;20058;-86
2022/02/07 06:30:38;;;;;;;24.88;15.73;;;;;;;;;;5085048;28;20017;-86
2022/02/07 06:33:06;;;;;;;25.98;14.02;;;;;;;;;;5078795;28;20323;-85
2022/02/07 06:35:33;;;;;;;30.27;19.20;;;;;;;;;;5078769;28;20147;-86
2022/02/07 06:41:02;;;;;;;46.42;31.92;;;;;;;;;;5059016;28;20071;-85
2022/02/07 06:43:29;;;;;;;84.07;48.60;;;;;;;;;;5058699;28;20407;-85
2022/02/07 06:45:55;;;;;;;35.55;20.45;;;;;;;;;;5057726;28;20079;-85
2022/02/07 06:48:21;;;;;;;30.95;17.83;;;;;;;;;;5070777;28;20024;-86
2022/02/07 06:50:47;;;;;;;32.13;19.13;;;;;;;;;;5078878;28;20284;-87
2022/02/07 06:56:16;;;;;;;27.10;17.35;;;;;;;;;;5078773;28;20024;-86
2022/02/07 06:58:42;;;;;;;34.85;20.23;;;;;;;;;;5079095;28;20161;-86
2022/02/07 07:01:08;;;;;;;33.47;20.95;;;;;;;;;;5077912;28;20043;-87
2022/02/07 07:03:35;;;;;;;41.00;24.23;;;;;;;;;;5082382;28;20111;-85
2022/02/07 07:06:01;;;;;;;36.00;20.10;;;;;;;;;;5095689;28;20093;-86
2022/02/07 07:11:32;;;;;;;33.63;18.10;;;;;;;;;;5080259;28;20356;-85
2022/02/07 07:14:13;;;;;;;36.00;24.45;;;;;;;;;;5078357;28;20061;-86
2022/02/07 07:16:50;;;;;;;27.30;16.90;;;;;;;;;;5078409;28;20047;-86
2022/02/07 07:19:17;;;;;;;27.65;15.73;;;;;;;;;;5078280;28;20016;-85
2022/02/07 07:22:20;;;;;;;27.40;15.63;;;;;;;;;;5079414;28;20028;-86
2022/02/07 07:24:46;;;;;;;33.47;18.42;;;;;;;;;;5089417;28;20032;-85
2022/02/07 07:27:14;;;;;;;33.80;19.02;;;;;;;;;;5076785;28;20029;-86
2022/02/07 07:29:45;;;;;;;40.88;22.55;;;;;;;;;;5076939;28;20027;-86
2022/02/07 07:32:11;;;;;;;28.10;17.83;;;;;;;;;;5078242;28;20028;-85
2022/02/07 07:34:37;;;;;;;24.33;14.63;;;;;;;;;;5077886;28;20024;-85
2022/02/07 07:40:08;;;;;;;26.70;16.23;;;;;;;;;;5077880;28;20043;-86
2022/02/07 07:42:34;;;;;;;25.58;15.15;;;;;;;;;;5077636;28;20029;-84
2022/02/07 07:45:00;;;;;;;25.13;15.88;;;;;;;;;;5078928;28;20284;-85
2022/02/07 07:47:30;;;;;;;26.05;15.57;;;;;;;;;;5082237;28;20024;-84
2022/02/07 07:50:10;;;;;;;33.28;17.33;;;;;;;;;;5096555;28;20024;-85
2022/02/07 08:03:39;;;;;;;41.13;19.48;;;;;;;;;;5036044;28;20124;-84
2022/02/07 08:06:14;;;;;;;30.73;14.52;;;;;;;;;;5035597;28;20036;-85
2022/02/07 08:11:26;;;;;;;24.55;14.93;;;;;;;;;;4976863;28;20106;-86
2022/02/07 08:13:54;;;;;;;29.52;17.55;;;;;;;;;;4976733;28;20031;-85
2022/02/07 08:16:20;;;;;;;22.58;13.48;;;;;;;;;;4976940;28;20031;-88
2022/02/07 08:18:46;;;;;;;25.88;14.52;;;;;;;;;;4968457;28;20034;-84
2022/02/07 08:21:12;;;;;;;16.95;8.88;;;;;;;;;;4945566;29;20627;-83
2022/02/07 08:23:39;;;;;;;16.80;8.85;;;;;;;;;;4946739;29;20335;-84
2022/02/07 08:26:06;;;;;;;17.50;10.02;;;;;;;;;;4963370;28;20024;-85
2022/02/07 08:28:32;;;;;;;20.35;10.52;;;;;;;;;;4942350;28;20040;-86
2022/02/07 08:30:59;;;;;;;17.88;9.80;;;;;;;;;;5011954;28;20033;-86
2022/02/07 08:33:25;;;;;;;20.60;10.18;;;;;;;;;;5015441;28;20030;-87
2022/02/07 08:35:51;;;;;;;17.45;9.18;;;;;;;;;;5014774;28;20092;-83
2022/02/07 08:38:18;;;;;;;16.92;8.55;;;;;;;;;;5015264;28;20026;-82
2022/02/07 08:40:44;;;;;;;11.80;7.28;;;;;;;;;;5015261;28;20033;-82
2022/02/07 08:43:10;;;;;;;15.77;7.28;;;;;;;;;;5015206;28;20116;-82
2022/02/07 08:45:37;;;;;;;14.68;8.18;;;;;;;;;;5015058;28;20400;-82
2022/02/07 08:48:04;;;;;;;14.65;7.80;;;;;;;;;;5028256;28;20124;-83
2022/02/07 08:50:31;;;;;;;30.83;16.92;;;;;;;;;;5055835;28;20057;-82
2022/02/07 08:52:59;;;;;;;26.98;14.43;;;;;;;;;;5056394;28;20017;-82
2022/02/07 08:55:30;;;;;;;33.03;14.30;;;;;;;;;;5056461;28;20021;-83
2022/02/07 08:58:01;;;;;;;20.17;10.20;;;;;;;;;;5056647;28;20350;-82
2022/02/07 09:05:45;;;;;;;16.98;7.85;;;;;;;;;;5056757;28;20030;-82
2022/02/07 09:10:44;;;;;;;13.88;8.10;;;;;;;;;;5060210;28;20033;-82
2022/02/07 09:13:10;;;;;;;4.75;2.58;;;;;;;;;;5060072;28;20044;-83
2022/02/07 09:18:11;;;;;;;10.15;3.17;;;;;;;;;;5060235;28;20039;-83
2022/02/07 09:20:41;;;;;;;29.40;8.38;;;;;;;;;;5059892;28;20028;-83
2022/02/07 09:23:08;;;;;;;157.90;57.03;;;;;;;;;;5059985;28;20025;-85
2022/02/07 09:25:34;;;;;;;341.30;102.32;;;;;;;;;;5059777;28;20050;-83
2022/02/07 09:28:00;;;;;;;247.63;75.13;;;;;;;;;;5059791;28;20029;-83
2022/02/07 09:30:27;;;;;;;97.55;49.75;;;;;;;;;;5059600;28;20021;-83
2022/02/07 09:32:53;;;;;;;28.83;16.20;;;;;;;;;;5059512;28;20108;-83
2022/02/07 09:35:19;;;;;;;21.20;12.70;;;;;;;;;;5059686;28;20347;-83
2022/02/07 09:37:45;;;;;;;13.40;8.10;;;;;;;;;;5059604;28;20037;-83
2022/02/07 09:40:12;;;;;;;9.02;4.28;;;;;;;;;;5059613;28;20025;-83
2022/02/07 09:42:41;;;;;;;4.60;1.98;;;;;;;;;;5059497;28;20104;-83
2022/02/07 09:45:14;;;;;;;3.42;2.40;;;;;;;;;;5058626;28;20311;-83
2022/02/07 09:47:41;;;;;;;4.20;2.50;;;;;;;;;;5059347;28;20403;-82
2022/02/07 09:50:07;;;;;;;3.92;2.03;;;;;;;;;;5058198;28;20314;-82
2022/02/07 09:52:33;;;;;;;16.92;8.20;;;;;;;;;;5059137;28;20074;-83
2022/02/07 09:55:00;;;;;;;27.27;11.93;;;;;;;;;;5058266;28;20021;-83
2022/02/07 09:57:26;;;;;;;12.93;6.45;;;;;;;;;;5059336;28;20044;-83
2022/02/07 09:59:54;;;;;;;7.30;4.40;;;;;;;;;;5059434;28;20021;-83
2022/02/07 10:02:31;;;;;;;8.48;5.82;;;;;;;;;;5059059;28;20051;-83
2022/02/07 10:05:01;;;;;;;5.32;3.28;;;;;;;;;;5058391;28;20041;-83
2022/02/07 10:07:38;;;;;;;8.95;4.88;;;;;;;;;;5058034;28;20044;-82
2022/02/07 10:10:21;;;;;;;10.35;7.20;;;;;;;;;;5057920;28;20025;-82
2022/02/07 10:15:34;;;;;;;5.07;3.60;;;;;;;;;;5059063;28;20025;-84
2022/02/07 10:21:06;;;;;;;4.20;3.13;;;;;;;;;;5058838;28;20021;-83
2022/02/07 10:40:07;;;;;;;11.43;4.60;;;;;;;;;;5036710;28;20275;-83
2022/02/07 10:43:06;;;;;;;9.45;5.40;;;;;;;;;;5036767;28;20041;-83
2022/02/07 10:45:33;;;;;;;8.07;4.68;;;;;;;;;;5020170;28;20109;-83
2022/02/07 10:48:01;;;;;;;6.60;4.40;;;;;;;;;;5019317;28;20033;-83
2022/02/07 10:50:27;;;;;;;7.53;4.10;;;;;;;;;;5036501;28;20028;-83
2022/02/07 10:52:55;;;;;;;8.88;5.22;;;;;;;;;;5036287;28;20033;-83
2022/02/07 10:55:22;;;;;;;14.40;8.00;;;;;;;;;;5036681;28;20053;-83
2022/02/07 10:57:49;;;;;;;10.05;5.00;;;;;;;;;;5036457;28;20036;-83
2022/02/07 11:00:26;;;;;;;6.38;4.75;;;;;;;;;;5036386;28;20056;-83
2022/02/07 11:03:06;;;;;;;9.25;6.05;;;;;;;;;;5036153;28;20068;-83
2022/02/07 11:05:40;;;;;;;7.88;5.13;;;;;;;;;;5036090;28;20033;-83
2022/02/07 11:08:21;;;;;;;8.20;4.28;;;;;;;;;;5019540;28;20423;-83
2022/02/07 11:21:47;;;;;;;10.30;4.90;;;;;;;;;;5057541;28;20025;-83
2022/02/07 11:24:52;;;;;;;10.38;5.75;;;;;;;;;;5056912;28;20021;-85
2022/02/07 11:27:32;;;;;;;9.63;5.32;;;;;;;;;;5056654;28;20025;-85
2022/02/07 11:29:59;;;;;;;8.25;4.13;;;;;;;;;;5057153;28;20025;-85
2022/02/07 11:32:44;;;;;;;6.65;4.10;;;;;;;;;;5057852;28;20045;-85
2022/02/07 11:35:17;;;;;;;7.50;4.38;;;;;;;;;;5056667;28;20163;-85
2022/02/07 11:37:49;;;;;;;16.50;10.15;;;;;;;;;;5057688;28;20040;-85
2022/02/07 11:40:29;;;;;;;8.75;4.65;;;;;;;;;;5064576;28;20031;-84
2022/02/07 11:43:14;;;;;;;6.53;2.78;;;;;;;;;;5061911;28;20036;-85
2022/02/07 11:45:52;;;;;;;7.60;4.40;;;;;;;;;;5057663;28;20029;-85
2022/02/07 11:48:20;;;;;;;5.63;2.42;;;;;;;;;;5056289;28;20025;-85
2022/02/07 11:50:46;;;;;;;11.07;5.63;;;;;;;;;;5056331;28;20017;-85
2022/02/07 11:53:15;;;;;;;10.20;3.53;;;;;;;;;;5057276;28;20323;-84
2022/02/07 11:55:49;;;;;;;12.02;6.60;;;;;;;;;;5056827;28;20029;-85
2022/02/07 11:58:24;;;;;;;5.97;2.90;;;;;;;;;;5056793;28;20040;-85
2022/02/07 12:00:56;;;;;;;5.57;2.60;;;;;;;;;;5057423;28;20029;-86
2022/02/07 12:03:26;;;;;;;3.38;1.50;;;;;;;;;;5057236;28;20055;-85
2022/02/07 12:05:53;;;;;;;3.08;1.70;;;;;;;;;;5056646;28;20037;-83
2022/02/07 12:08:19;;;;;;;4.38;2.25;;;;;;;;;;5057341;28;20033;-86
2022/02/07 12:10:47;;;;;;;2.47;1.42;;;;;;;;;;5056452;28;20040;-85
2022/02/07 12:13:29;;;;;;;6.80;4.18;;;;;;;;;;5056659;28;20040;-85
2022/02/07 12:15:57;;;;;;;2.40;1.63;;;;;;;;;;5057176;28;20031;-85
2022/02/07 12:18:24;;;;;;;7.88;5.40;;;;;;;;;;5056020;28;20037;-85
2022/02/07 12:20:54;;;;;;;9.82;4.50;;;;;;;;;;5057529;28;20079;-84
2022/02/07 12:23:22;;;;;;;6.05;3.30;;;;;;;;;;5057167;28;20036;-84
2022/02/07 12:25:55;;;;;;;4.53;2.70;;;;;;;;;;5057447;28;20025;-84
2022/02/07 12:28:34;;;;;;;5.55;3.58;;;;;;;;;;5056475;28;20040;-85
2022/02/07 12:33:28;;;;;;;4.13;1.20;;;;;;;;;;5056998;28;20040;-85
2022/02/07 12:35:57;;;;;;;2.25;1.45;;;;;;;;;;5055811;28;20064;-86
2022/02/07 12:38:23;;;;;;;3.63;1.20;;;;;;;;;;5057103;28;20308;-85
2022/02/07 12:40:50;;;;;;;2.42;0.73;;;;;;;;;;5059109;28;20032;-85
2022/02/07 12:43:16;;;;;;;1.77;0.82;;;;;;;;;;5059894;28;20465;-85
2022/02/07 12:45:42;;;;;;;3.45;1.00;;;;;;;;;;5060214;28;20037;-85
2022/02/07 12:48:18;;;;;;;5.10;2.00;;;;;;;;;;5060759;28;20059;-85
2022/02/07 12:50:52;;;;;;;4.10;2.13;;;;;;;;;;5060829;28;20362;-85
2022/02/07 12:53:22;;;;;;;5.40;2.10;;;;;;;;;;5059298;28;20112;-85
2022/02/07 12:55:55;;;;;;;4.05;1.80;;;;;;;;;;5060674;28;20067;-85
2022/02/07 12:58:22;;;;;;;3.38;1.75;;;;;;;;;;5060707;28;20033;-85
2022/02/07 13:00:48;;;;;;;15.65;2.50;;;;;;;;;;5060821;28;20029;-85
2022/02/07 13:03:14;;;;;;;5.35;2.13;;;;;;;;;;5060575;28;20426;-85
2022/02/07 13:05:40;;;;;;;6.68;2.70;;;;;;;;;;5060527;28;20056;-85
2022/02/07 13:08:08;;;;;;;5.43;2.13;;;;;;;;;;5068481;28;20415;-84
2022/02/07 13:10:37;;;;;;;4.40;2.10;;;;;;;;;;5080001;28;20050;-84
2022/02/07 13:13:21;;;;;;;3.25;2.10;;;;;;;;;;5078841;28;20410;-84
2022/02/07 13:15:47;;;;;;;4.50;2.05;;;;;;;;;;5080323;28;20033;-84
2022/02/07 13:18:17;;;;;;;3.38;1.50;;;;;;;;;;5080332;28;20029;-85
2022/02/07 13:20:44;;;;;;;8.10;2.53;;;;;;;;;;5080176;28;20025;-84
2022/02/07 13:23:14;;;;;;;4.13;2.00;;;;;;;;;;5080126;28;20099;-84
2022/02/07 13:25:44;;;;;;;8.38;2.47;;;;;;;;;;5079975;28;20032;-84
2022/02/07 13:28:17;;;;;;;3.53;1.85;;;;;;;;;;5079749;28;20056;-84
2022/02/07 13:30:46;;;;;;;4.57;1.58;;;;;;;;;;5079904;28;20021;-84
2022/02/07 13:33:12;;;;;;;3.50;1.80;;;;;;;;;;5078699;28;20021;-84
2022/02/07 13:35:44;;;;;;;9.10;3.67;;;;;;;;;;5078538;28;20182;-83
2022/02/07 13:38:11;;;;;;;7.60;2.35;;;;;;;;;;5079709;28;20436;-83
2022/02/07 13:40:41;;;;;;;4.90;2.20;;;;;;;;;;5079942;28;20029;-84
2022/02/07 13:43:24;;;;;;;4.07;2.28;;;;;;;;;;5079676;28;20035;-84
2022/02/07 13:45:52;;;;;;;5.75;2.10;;;;;;;;;;5078414;28;20025;-84
2022/02/07 13:48:19;;;;;;;3.50;1.63;;;;;;;;;;5079385;28;20048;-83
2022/02/07 13:50:47;;;;;;;4.03;2.00;;;;;;;;;;5079576;28;20477;-84
2022/02/07 13:53:16;;;;;;;6.97;2.25;;;;;;;;;;5078843;28;20104;-84
2022/02/07 13:55:43;;;;;;;5.03;2.00;;;;;;;;;;5078304;28;20179;-84
2022/02/07 13:58:13;;;;;;;3.72;1.60;;;;;;;;;;5078404;28;20028;-84
2022/02/07 14:00:39;;;;;;;2.88;1.50;;;;;;;;;;5079388;28;20081;-84
2022/02/07 14:03:15;;;;;;;4.07;1.77;;;;;;;;;;5079380;28;20399;-83
2022/02/07 14:05:45;;;;;;;4.05;1.60;;;;;;;;;;5078702;28;20079;-85
2022/02/07 14:08:12;;;;;;;3.85;1.70;;;;;;;;;;5078082;28;20035;-84
2022/02/07 14:10:39;;;;;;;5.55;1.83;;;;;;;;;;5079125;28;20024;-84
2022/02/07 14:13:10;;;;;;;3.55;1.50;;;;;;;;;;5078248;28;20029;-83
2022/02/07 14:15:37;;;;;;;10.55;2.05;;;;;;;;;;5079030;28;20031;-84
2022/02/07 14:18:06;;;;;;;4.10;1.50;;;;;;;;;;5076069;28;20442;-81
2022/02/07 14:20:35;;;;;;;5.28;1.33;;;;;;;;;;5076912;28;20040;-83
2022/02/07 14:23:01;;;;;;;5.18;1.00;;;;;;;;;;5078880;28;20033;-83
2022/02/07 14:25:29;;;;;;;4.75;1.30;;;;;;;;;;5079039;28;20103;-84
2022/02/07 14:27:58;;;;;;;4.72;1.23;;;;;;;;;;5078582;28;20099;-84
2022/02/07 14:30:26;;;;;;;9.80;1.65;;;;;;;;;;5078865;28;20020;-84
2022/02/07 14:32:52;;;;;;;7.10;1.60;;;;;;;;;;5077764;28;20021;-84
2022/02/07 14:35:18;;;;;;;7.00;2.05;;;;;;;;;;5077520;28;20131;-83
2022/02/07 14:37:44;;;;;;;4.85;1.85;;;;;;;;;;5078286;28;20032;-83
2022/02/07 14:40:11;;;;;;;12.77;2.20;;;;;;;;;;5076288;28;20033;-82
2022/02/07 14:42:37;;;;;;;7.03;2.15;;;;;;;;;;5077392;28;20033;-83
2022/02/07 14:45:42;;;;;;;8.63;1.65;;;;;;;;;;5078345;28;20032;-84
2022/02/07 14:48:00;;;;;;;7.68;1.25;;;;;;;;;;5076912;28;20060;-84
2022/02/07 14:50:27;;;;;;;15.52;6.68;;;;;;;;;;5078472;28;20036;-84
2022/02/07 14:52:53;;;;;;;19.45;5.05;;;;;;;;;;5078089;28;20480;-83
2022/02/07 14:55:20;;;;;;;15.20;4.82;;;;;;;;;;5078126;28;20059;-84
2022/02/07 14:57:47;;;;;;;11.30;4.47;;;;;;;;;;5078161;28;20032;-83
2022/02/07 15:00:17;;;;;;;5.85;1.95;;;;;;;;;;5077001;28;20329;-83
2022/02/07 15:02:43;;;;;;;14.70;7.43;;;;;;;;;;5078080;28;20021;-84
2022/02/07 15:05:10;;;;;;;10.23;3.95;;;;;;;;;;5077139;28;20039;-84
2022/02/07 15:07:36;;;;;;;4.13;1.70;;;;;;;;;;5077630;28;20121;-83
2022/02/07 15:10:04;;;;;;;7.15;1.92;;;;;;;;;;5078031;28;20013;-83
2022/02/07 15:12:30;;;;;;;4.60;1.73;;;;;;;;;;5077226;28;20032;-83
2022/02/07 15:14:57;;;;;;;7.45;4.03;;;;;;;;;;5077595;28;20401;-84
2022/02/07 15:17:28;;;;;;;8.07;2.00;;;;;;;;;;5077821;28;20423;-83
2022/02/07 15:20:04;;;;;;;11.02;1.40;;;;;;;;;;5077910;28;20040;-84
2022/02/07 15:22:30;;;;;;;9.85;1.42;;;;;;;;;;5076981;28;20037;-83
2022/02/07 15:24:57;;;;;;;18.33;1.45;;;;;;;;;;5077599;28;20031;-83
2022/02/07 15:27:25;;;;;;;10.13;1.17;;;;;;;;;;5077498;28;20439;-82
2022/02/07 15:29:52;;;;;;;7.25;1.40;;;;;;;;;;5077639;28;20108;-83
2022/02/07 15:34:51;;;;;;;13.15;1.65;;;;;;;;;;5077649;28;20036;-83
2022/02/07 15:37:17;;;;;;;4.35;1.65;;;;;;;;;;5076546;28;20441;-83
2022/02/07 15:39:43;;;;;;;7.20;1.73;;;;;;;;;;5076354;28;20028;-83
2022/02/07 15:42:10;;;;;;;6.88;1.45;;;;;;;;;;5077378;28;20027;-83
2022/02/07 15:44:36;;;;;;;13.43;1.55;;;;;;;;;;5077787;28;20040;-83
2022/02/07 15:47:03;;;;;;;6.18;1.55;;;;;;;;;;5077524;28;20028;-83
2022/02/07 15:49:29;;;;;;;13.43;1.85;;;;;;;;;;5077369;28;20016;-83
2022/02/07 15:51:55;;;;;;;10.80;1.52;;;;;;;;;;5077130;28;20025;-83
2022/02/07 15:54:21;;;;;;;27.25;6.78;;;;;;;;;;5076231;28;20310;-83
2022/02/07 15:56:47;;;;;;;25.10;8.50;;;;;;;;;;5077217;28;20307;-83
2022/02/07 15:59:13;;;;;;;16.02;2.38;;;;;;;;;;5077639;28;20047;-83
2022/02/07 16:01:39;;;;;;;11.48;2.30;;;;;;;;;;5076527;28;20036;-84
2022/02/07 16:04:06;;;;;;;13.02;3.38;;;;;;;;;;5076306;28;20027;-84
2022/02/07 16:06:32;;;;;;;14.35;1.90;;;;;;;;;;5076380;28;20039;-84
2022/02/07 16:08:58;;;;;;;14.68;2.28;;;;;;;;;;5076376;28;20044;-83
2022/02/07 16:11:25;;;;;;;7.32;2.13;;;;;;;;;;5077217;28;20052;-83
2022/02/07 16:13:55;;;;;;;9.77;2.70;;;;;;;;;;5077407;28;20032;-84
2022/02/07 16:16:21;;;;;;;12.65;2.63;;;;;;;;;;5080444;28;20099;-84
2022/02/07 16:18:47;;;;;;;11.80;2.05;;;;;;;;;;5081249;28;20032;-84
2022/02/07 16:21:15;;;;;;;14.13;2.15;;;;;;;;;;5080376;28;20098;-84
2022/02/07 16:23:41;;;;;;;14.65;2.47;;;;;;;;;;5081031;28;20025;-84
2022/02/07 16:26:08;;;;;;;8.82;1.80;;;;;;;;;;5080223;28;20365;-84
2022/02/07 16:28:34;;;;;;;17.55;1.67;;;;;;;;;;5080545;28;20040;-85
2022/02/07 16:31:00;;;;;;;11.38;3.33;;;;;;;;;;5080369;28;20067;-84
2022/02/07 16:33:27;;;;;;;15.65;6.88;;;;;;;;;;5080463;28;20037;-84
2022/02/07 16:35:53;;;;;;;15.98;4.57;;;;;;;;;;5081003;28;20069;-84
2022/02/07 16:38:20;;;;;;;9.18;4.88;;;;;;;;;;5081064;28;20124;-84
2022/02/07 16:40:46;;;;;;;17.20;4.20;;;;;;;;;;5080883;28;20407;-84
2022/02/07 16:43:13;;;;;;;8.18;3.53;;;;;;;;;;5080219;28;20406;-88
2022/02/07 16:48:15;;;;;;;6.05;2.28;;;;;;;;;;5081199;28;20033;-82
2022/02/07 16:50:41;;;;;;;6.50;2.45;;;;;;;;;;5080776;28;20028;-83
2022/02/07 16:53:07;;;;;;;10.20;2.97;;;;;;;;;;5080520;28;20035;-82
2022/02/07 16:55:34;;;;;;;9.02;3.28;;;;;;;;;;5080580;28;20025;-78
2022/02/07 16:58:00;;;;;;;9.00;2.90;;;;;;;;;;5080205;28;20028;-79
2022/02/07 17:00:26;;;;;;;8.20;2.85;;;;;;;;;;5080096;28;20036;-80
2022/02/07 17:02:53;;;;;;;16.00;5.38;;;;;;;;;;5080441;28;20021;-79
2022/02/07 17:05:19;;;;;;;16.40;5.50;;;;;;;;;;5066253;28;20036;-79
2022/02/07 17:07:46;;;;;;;12.43;4.85;;;;;;;;;;5079570;28;20033;-79
2022/02/07 17:10:19;;;;;;;10.18;3.95;;;;;;;;;;5077431;28;20044;-79
2022/02/07 17:12:46;;;;;;;11.30;4.97;;;;;;;;;;5072949;28;20414;-80
2022/02/07 17:15:13;;;;;;;12.05;5.88;;;;;;;;;;5074721;28;20024;-80
2022/02/07 17:17:40;;;;;;;13.63;4.20;;;;;;;;;;5061081;28;20311;-83
2022/02/07 17:20:07;;;;;;;24.35;7.35;;;;;;;;;;5060540;28;20040;-83
2022/02/07 17:22:33;;;;;;;22.10;8.98;;;;;;;;;;5059820;28;20453;-81
2022/02/07 17:24:59;;;;;;;26.75;9.27;;;;;;;;;;5060923;28;20112;-81
2022/02/07 17:27:25;;;;;;;20.38;7.45;;;;;;;;;;5057630;28;20063;-83
2022/02/07 17:29:51;;;;;;;23.02;9.35;;;;;;;;;;5059920;28;20017;-81
2022/02/07 17:32:19;;;;;;;29.35;9.15;;;;;;;;;;5059494;28;20049;-81
2022/02/07 17:34:45;;;;;;;20.73;7.47;;;;;;;;;;5063669;28;20430;-81
2022/02/07 17:37:11;;;;;;;26.42;9.82;;;;;;;;;;5059479;28;20415;-81
2022/02/07 17:39:37;;;;;;;26.50;10.60;;;;;;;;;;5059411;28;20362;-84
2022/02/07 17:42:04;;;;;;;48.00;17.55;;;;;;;;;;5075761;28;20036;-84
2022/02/07 17:44:37;;;;;;;49.65;18.75;;;;;;;;;;5061695;28;20016;-83
2022/02/07 17:47:04;;;;;;;17.83;5.82;;;;;;;;;;5076076;28;20068;-84
2022/02/07 17:49:30;;;;;;;18.08;4.72;;;;;;;;;;5078048;28;20095;-82
2022/02/07 17:51:56;;;;;;;13.48;3.58;;;;;;;;;;5069159;28;20040;-85
2022/02/07 17:54:41;;;;;;;10.13;4.07;;;;;;;;;;5059684;28;20055;-81